Accueil
METAR-TAF:

METAR-TAF

Aéroports :

Bermudes, Bermudes

Aéroport international L.F. Wade

latitude: 32-22N, longitude: 064-41W, altitude: 6 m

Observation

Le bulletin a été fait il y a 37 minutes, à 11:55 UTC
Vent 14 kt de ouest
Température 29°C
Humidité 74%
Pression 1019 hPa
Visibilité 10 km ou plus
Nuages épars à une hauteur de 1600 ft
Nuages fragmentés à une hauteur de 3300 ft

METAR: TXKF 231155Z 27014KT 9999 SCT016 BKN033 29/24 Q1019

Heure: 09:32 (12:32 UTC)

Prévision

Le bulletin a été fait il y a 1 heure et 1 minutes, à 11:31 UTC
Prévision valable du 23 à 12 UTC au 24 à 12 UTC
Vent 15 kt de ouest
Visibilité 10 km ou plus
Nuages épars à une hauteur de 1500 ft

TAF: TXKF 231131Z 2312/2412 27015KT 9999 SCT015

Observations et prévisions météorologiques de plus de 4000 aéroports (messages METAR et TAF).

Les stations disponibles sont représentées par des disques jaunes et rouges sur la carte.

Passer la souris dessus pour voir le nom de la station.

Cliquer dessus pour voir les observations et prévisions météorologiques.

Pour changer de carte: cliquez sur les boutons verts avec une croix noire pour zoomer, sur le bouton vert avec un tiret pour effectuer un zoom arrière, ou sur les flèches vertes pour les cartes adjacentes.


METAR-TAF: